sensor_id;sensor_type;location;lat;lon;timestamp;temperature;humidity
37794;DHT22;23632;48.826;15.176;2022-08-19T00:02:12;19.70;68.10
37794;DHT22;23632;48.826;15.176;2022-08-19T00:04:39;19.70;68.20
37794;DHT22;23632;48.826;15.176;2022-08-19T00:07:07;19.70;68.30
37794;DHT22;23632;48.826;15.176;2022-08-19T00:09:34;19.80;68.60
37794;DHT22;23632;48.826;15.176;2022-08-19T00:12:02;19.80;68.70
37794;DHT22;23632;48.826;15.176;2022-08-19T00:14:30;19.80;68.70
37794;DHT22;23632;48.826;15.176;2022-08-19T00:17:01;19.90;68.90
37794;DHT22;23632;48.826;15.176;2022-08-19T00:19:30;19.90;68.90
37794;DHT22;23632;48.826;15.176;2022-08-19T00:21:58;20.00;69.00
37794;DHT22;23632;48.826;15.176;2022-08-19T00:24:25;20.00;68.90
37794;DHT22;23632;48.826;15.176;2022-08-19T00:26:55;20.00;68.90
37794;DHT22;23632;48.826;15.176;2022-08-19T00:29:44;20.10;68.90
37794;DHT22;23632;48.826;15.176;2022-08-19T00:32:18;20.10;69.10
37794;DHT22;23632;48.826;15.176;2022-08-19T00:34:46;20.10;69.20
37794;DHT22;23632;48.826;15.176;2022-08-19T00:37:13;20.20;69.00
37794;DHT22;23632;48.826;15.176;2022-08-19T00:39:40;20.20;69.20
37794;DHT22;23632;48.826;15.176;2022-08-19T00:42:07;20.20;69.20
37794;DHT22;23632;48.826;15.176;2022-08-19T00:44:34;20.20;69.30
37794;DHT22;23632;48.826;15.176;2022-08-19T00:47:02;20.30;69.40
37794;DHT22;23632;48.826;15.176;2022-08-19T00:49:48;20.30;69.40
37794;DHT22;23632;48.826;15.176;2022-08-19T00:52:23;20.40;69.80
37794;DHT22;23632;48.826;15.176;2022-08-19T00:54:56;20.40;69.60
37794;DHT22;23632;48.826;15.176;2022-08-19T00:57:29;20.40;69.30
37794;DHT22;23632;48.826;15.176;2022-08-19T01:00:00;20.50;69.50
37794;DHT22;23632;48.826;15.176;2022-08-19T01:02:30;20.50;69.10
37794;DHT22;23632;48.826;15.176;2022-08-19T01:04:59;20.40;69.80
37794;DHT22;23632;48.826;15.176;2022-08-19T01:07:28;20.40;69.00
37794;DHT22;23632;48.826;15.176;2022-08-19T01:10:08;20.40;68.80
37794;DHT22;23632;48.826;15.176;2022-08-19T01:12:38;20.40;68.90
37794;DHT22;23632;48.826;15.176;2022-08-19T01:15:08;20.30;68.90
37794;DHT22;23632;48.826;15.176;2022-08-19T01:17:39;20.30;69.20
37794;DHT22;23632;48.826;15.176;2022-08-19T01:20:13;20.20;69.00
37794;DHT22;23632;48.826;15.176;2022-08-19T01:22:56;20.20;69.20
37794;DHT22;23632;48.826;15.176;2022-08-19T01:25:28;20.20;69.30
37794;DHT22;23632;48.826;15.176;2022-08-19T01:27:59;20.10;69.00
37794;DHT22;23632;48.826;15.176;2022-08-19T01:30:37;20.10;68.90
37794;DHT22;23632;48.826;15.176;2022-08-19T01:33:04;20.00;69.80
37794;DHT22;23632;48.826;15.176;2022-08-19T01:35:32;20.00;69.00
37794;DHT22;23632;48.826;15.176;2022-08-19T01:38:02;20.00;69.30
37794;DHT22;23632;48.826;15.176;2022-08-19T01:40:37;19.90;69.30
37794;DHT22;23632;48.826;15.176;2022-08-19T01:43:05;19.90;69.40
37794;DHT22;23632;48.826;15.176;2022-08-19T01:45:34;19.90;69.20
37794;DHT22;23632;48.826;15.176;2022-08-19T01:48:03;19.90;69.60
37794;DHT22;23632;48.826;15.176;2022-08-19T01:50:32;19.80;69.60
37794;DHT22;23632;48.826;15.176;2022-08-19T01:53:02;19.90;69.40
37794;DHT22;23632;48.826;15.176;2022-08-19T01:55:36;19.80;69.60
37794;DHT22;23632;48.826;15.176;2022-08-19T01:58:11;19.80;69.60
37794;DHT22;23632;48.826;15.176;2022-08-19T02:00:41;19.80;69.50
37794;DHT22;23632;48.826;15.176;2022-08-19T02:03:08;19.80;69.30
37794;DHT22;23632;48.826;15.176;2022-08-19T02:05:38;19.80;69.40
37794;DHT22;23632;48.826;15.176;2022-08-19T02:08:08;19.80;69.60
37794;DHT22;23632;48.826;15.176;2022-08-19T02:10:40;19.70;69.50
37794;DHT22;23632;48.826;15.176;2022-08-19T02:13:10;19.70;69.80
37794;DHT22;23632;48.826;15.176;2022-08-19T02:15:39;19.60;69.60
37794;DHT22;23632;48.826;15.176;2022-08-19T02:18:06;19.60;69.60
37794;DHT22;23632;48.826;15.176;2022-08-19T02:20:36;19.60;69.70
37794;DHT22;23632;48.826;15.176;2022-08-19T02:23:03;19.50;69.70
37794;DHT22;23632;48.826;15.176;2022-08-19T02:25:39;19.60;69.80
37794;DHT22;23632;48.826;15.176;2022-08-19T02:28:07;19.60;70.00
37794;DHT22;23632;48.826;15.176;2022-08-19T02:30:34;19.60;69.90
37794;DHT22;23632;48.826;15.176;2022-08-19T02:33:01;19.60;69.90
37794;DHT22;23632;48.826;15.176;2022-08-19T02:35:29;19.50;69.80
37794;DHT22;23632;48.826;15.176;2022-08-19T02:37:56;19.50;69.60
37794;DHT22;23632;48.826;15.176;2022-08-19T02:40:49;19.50;69.60
37794;DHT22;23632;48.826;15.176;2022-08-19T02:43:19;19.50;69.90
37794;DHT22;23632;48.826;15.176;2022-08-19T02:45:49;19.50;69.80
37794;DHT22;23632;48.826;15.176;2022-08-19T02:48:23;19.50;69.80
37794;DHT22;23632;48.826;15.176;2022-08-19T02:50:52;19.50;70.10
37794;DHT22;23632;48.826;15.176;2022-08-19T02:53:24;19.40;69.80
37794;DHT22;23632;48.826;15.176;2022-08-19T02:55:53;19.40;70.00
37794;DHT22;23632;48.826;15.176;2022-08-19T02:58:21;19.40;69.80
37794;DHT22;23632;48.826;15.176;2022-08-19T03:00:53;19.40;69.90
37794;DHT22;23632;48.826;15.176;2022-08-19T03:03:23;19.40;70.10
37794;DHT22;23632;48.826;15.176;2022-08-19T03:05:50;19.40;70.00
37794;DHT22;23632;48.826;15.176;2022-08-19T03:08:24;19.40;70.00
37794;DHT22;23632;48.826;15.176;2022-08-19T03:10:52;19.40;70.00
37794;DHT22;23632;48.826;15.176;2022-08-19T03:13:20;19.40;70.10
37794;DHT22;23632;48.826;15.176;2022-08-19T03:15:48;19.40;70.00
37794;DHT22;23632;48.826;15.176;2022-08-19T03:18:16;19.40;70.00
37794;DHT22;23632;48.826;15.176;2022-08-19T03:20:46;19.40;70.20
37794;DHT22;23632;48.826;15.176;2022-08-19T03:23:16;19.30;70.20
37794;DHT22;23632;48.826;15.176;2022-08-19T03:25:46;19.30;70.10
37794;DHT22;23632;48.826;15.176;2022-08-19T03:28:32;19.30;70.20
37794;DHT22;23632;48.826;15.176;2022-08-19T03:31:07;19.30;70.20
37794;DHT22;23632;48.826;15.176;2022-08-19T03:33:59;19.30;70.60
37794;DHT22;23632;48.826;15.176;2022-08-19T03:36:26;19.40;70.20
37794;DHT22;23632;48.826;15.176;2022-08-19T03:38:57;19.30;70.20
37794;DHT22;23632;48.826;15.176;2022-08-19T03:41:32;19.30;71.20
37794;DHT22;23632;48.826;15.176;2022-08-19T03:44:20;19.30;70.60
37794;DHT22;23632;48.826;15.176;2022-08-19T03:46:51;19.30;71.70
37794;DHT22;23632;48.826;15.176;2022-08-19T03:49:21;19.30;70.50
37794;DHT22;23632;48.826;15.176;2022-08-19T03:51:55;19.20;70.30
37794;DHT22;23632;48.826;15.176;2022-08-19T03:54:24;19.20;70.50
37794;DHT22;23632;48.826;15.176;2022-08-19T03:56:53;19.10;70.60
37794;DHT22;23632;48.826;15.176;2022-08-19T03:59:28;19.20;70.60
37794;DHT22;23632;48.826;15.176;2022-08-19T04:02:02;19.10;71.10
37794;DHT22;23632;48.826;15.176;2022-08-19T04:04:37;19.20;71.70
37794;DHT22;23632;48.826;15.176;2022-08-19T04:07:05;19.10;71.00
37794;DHT22;23632;48.826;15.176;2022-08-19T04:09:33;19.10;70.90
37794;DHT22;23632;48.826;15.176;2022-08-19T04:12:01;19.10;70.90
37794;DHT22;23632;48.826;15.176;2022-08-19T04:14:29;19.20;71.00
37794;DHT22;23632;48.826;15.176;2022-08-19T04:16:58;19.20;71.10
37794;DHT22;23632;48.826;15.176;2022-08-19T04:19:28;19.20;71.30
37794;DHT22;23632;48.826;15.176;2022-08-19T04:21:56;19.20;71.40
37794;DHT22;23632;48.826;15.176;2022-08-19T04:24:23;19.20;71.40
37794;DHT22;23632;48.826;15.176;2022-08-19T04:26:51;19.30;71.90
37794;DHT22;23632;48.826;15.176;2022-08-19T04:29:21;19.30;72.10
37794;DHT22;23632;48.826;15.176;2022-08-19T04:31:54;19.40;72.30
37794;DHT22;23632;48.826;15.176;2022-08-19T04:34:24;19.40;72.10
37794;DHT22;23632;48.826;15.176;2022-08-19T04:36:54;19.40;72.10
37794;DHT22;23632;48.826;15.176;2022-08-19T04:39:26;19.50;72.20
37794;DHT22;23632;48.826;15.176;2022-08-19T04:42:18;19.50;72.00
37794;DHT22;23632;48.826;15.176;2022-08-19T04:45:09;19.50;72.00
37794;DHT22;23632;48.826;15.176;2022-08-19T04:47:41;19.60;71.70
37794;DHT22;23632;48.826;15.176;2022-08-19T04:50:25;19.60;73.00
37794;DHT22;23632;48.826;15.176;2022-08-19T04:52:53;19.70;72.10
37794;DHT22;23632;48.826;15.176;2022-08-19T04:55:22;19.70;72.10
37794;DHT22;23632;48.826;15.176;2022-08-19T04:57:52;19.80;72.10
37794;DHT22;23632;48.826;15.176;2022-08-19T05:00:20;19.80;72.10
37794;DHT22;23632;48.826;15.176;2022-08-19T05:02:47;19.90;72.20
37794;DHT22;23632;48.826;15.176;2022-08-19T05:05:16;19.90;72.10
37794;DHT22;23632;48.826;15.176;2022-08-19T05:07:43;20.00;73.20
37794;DHT22;23632;48.826;15.176;2022-08-19T05:10:11;20.10;72.30
37794;DHT22;23632;48.826;15.176;2022-08-19T05:12:39;20.20;72.60
37794;DHT22;23632;48.826;15.176;2022-08-19T05:15:07;20.30;72.60
37794;DHT22;23632;48.826;15.176;2022-08-19T05:17:35;20.30;72.40
37794;DHT22;23632;48.826;15.176;2022-08-19T05:20:07;20.40;72.20
37794;DHT22;23632;48.826;15.176;2022-08-19T05:22:53;20.50;72.40
37794;DHT22;23632;48.826;15.176;2022-08-19T05:25:21;20.60;71.90
37794;DHT22;23632;48.826;15.176;2022-08-19T05:27:49;20.60;71.90
37794;DHT22;23632;48.826;15.176;2022-08-19T05:30:16;20.70;71.90
37794;DHT22;23632;48.826;15.176;2022-08-19T05:32:49;20.80;71.90
37794;DHT22;23632;48.826;15.176;2022-08-19T05:35:20;20.80;72.10
37794;DHT22;23632;48.826;15.176;2022-08-19T05:37:47;20.90;72.20
37794;DHT22;23632;48.826;15.176;2022-08-19T05:40:20;21.00;72.20
37794;DHT22;23632;48.826;15.176;2022-08-19T05:42:48;21.10;72.30
37794;DHT22;23632;48.826;15.176;2022-08-19T05:45:21;21.20;72.30
37794;DHT22;23632;48.826;15.176;2022-08-19T05:47:48;21.30;72.30
37794;DHT22;23632;48.826;15.176;2022-08-19T05:50:16;21.50;72.20
37794;DHT22;23632;48.826;15.176;2022-08-19T05:52:44;21.60;72.00
37794;DHT22;23632;48.826;15.176;2022-08-19T05:55:15;21.60;72.60
37794;DHT22;23632;48.826;15.176;2022-08-19T05:57:42;21.70;71.50
37794;DHT22;23632;48.826;15.176;2022-08-19T06:00:10;21.90;71.40
37794;DHT22;23632;48.826;15.176;2022-08-19T06:02:38;21.90;71.30
37794;DHT22;23632;48.826;15.176;2022-08-19T06:05:08;21.90;71.40
37794;DHT22;23632;48.826;15.176;2022-08-19T06:07:37;21.90;71.50
37794;DHT22;23632;48.826;15.176;2022-08-19T06:10:07;21.90;71.70
37794;DHT22;23632;48.826;15.176;2022-08-19T06:12:37;21.90;71.90
37794;DHT22;23632;48.826;15.176;2022-08-19T06:15:08;21.90;71.80
37794;DHT22;23632;48.826;15.176;2022-08-19T06:17:37;21.80;72.00
37794;DHT22;23632;48.826;15.176;2022-08-19T06:20:07;21.80;72.10
37794;DHT22;23632;48.826;15.176;2022-08-19T06:22:39;21.70;72.20
37794;DHT22;23632;48.826;15.176;2022-08-19T06:25:09;21.70;72.30
37794;DHT22;23632;48.826;15.176;2022-08-19T06:27:37;21.60;72.40
37794;DHT22;23632;48.826;15.176;2022-08-19T06:30:24;21.60;72.50
37794;DHT22;23632;48.826;15.176;2022-08-19T06:32:52;21.60;72.60
37794;DHT22;23632;48.826;15.176;2022-08-19T06:35:19;21.60;72.70
37794;DHT22;23632;48.826;15.176;2022-08-19T06:37:46;21.60;72.90
37794;DHT22;23632;48.826;15.176;2022-08-19T06:40:13;21.60;73.00
37794;DHT22;23632;48.826;15.176;2022-08-19T06:42:41;21.60;73.10
37794;DHT22;23632;48.826;15.176;2022-08-19T06:45:21;21.60;73.40
37794;DHT22;23632;48.826;15.176;2022-08-19T06:47:59;21.60;73.50
37794;DHT22;23632;48.826;15.176;2022-08-19T06:50:27;21.70;73.70
37794;DHT22;23632;48.826;15.176;2022-08-19T06:52:54;21.80;73.90
37794;DHT22;23632;48.826;15.176;2022-08-19T06:55:21;21.90;74.30
37794;DHT22;23632;48.826;15.176;2022-08-19T06:57:49;22.00;74.30
37794;DHT22;23632;48.826;15.176;2022-08-19T07:00:20;22.10;74.50
37794;DHT22;23632;48.826;15.176;2022-08-19T07:02:48;22.30;74.20
37794;DHT22;23632;48.826;15.176;2022-08-19T07:05:22;22.40;74.00
37794;DHT22;23632;48.826;15.176;2022-08-19T07:07:49;22.60;74.20
37794;DHT22;23632;48.826;15.176;2022-08-19T07:10:17;22.80;74.90
37794;DHT22;23632;48.826;15.176;2022-08-19T07:12:45;22.90;73.80
37794;DHT22;23632;48.826;15.176;2022-08-19T07:15:13;23.10;74.00
37794;DHT22;23632;48.826;15.176;2022-08-19T07:17:40;23.30;73.70
37794;DHT22;23632;48.826;15.176;2022-08-19T07:20:10;23.40;73.70
37794;DHT22;23632;48.826;15.176;2022-08-19T07:22:38;23.60;73.50
37794;DHT22;23632;48.826;15.176;2022-08-19T07:25:08;23.70;72.90
37794;DHT22;23632;48.826;15.176;2022-08-19T07:27:36;23.70;73.00
37794;DHT22;23632;48.826;15.176;2022-08-19T07:30:07;23.80;72.90
37794;DHT22;23632;48.826;15.176;2022-08-19T07:32:38;23.80;73.90
37794;DHT22;23632;48.826;15.176;2022-08-19T07:35:07;23.90;73.00
37794;DHT22;23632;48.826;15.176;2022-08-19T07:37:36;24.00;73.30
37794;DHT22;23632;48.826;15.176;2022-08-19T07:40:06;24.00;72.70
37794;DHT22;23632;48.826;15.176;2022-08-19T07:42:34;24.10;72.60
37794;DHT22;23632;48.826;15.176;2022-08-19T07:45:02;24.10;72.50
37794;DHT22;23632;48.826;15.176;2022-08-19T07:47:30;24.10;72.50
37794;DHT22;23632;48.826;15.176;2022-08-19T07:50:19;24.20;72.60
37794;DHT22;23632;48.826;15.176;2022-08-19T07:52:49;24.20;72.40
37794;DHT22;23632;48.826;15.176;2022-08-19T07:55:20;24.30;72.50
37794;DHT22;23632;48.826;15.176;2022-08-19T07:58:09;24.30;72.30
37794;DHT22;23632;48.826;15.176;2022-08-19T08:00:42;24.30;72.60
37794;DHT22;23632;48.826;15.176;2022-08-19T08:03:11;24.40;72.60
37794;DHT22;23632;48.826;15.176;2022-08-19T08:05:39;24.50;72.70
37794;DHT22;23632;48.826;15.176;2022-08-19T08:08:26;24.50;72.40
37794;DHT22;23632;48.826;15.176;2022-08-19T08:11:03;24.60;72.10
37794;DHT22;23632;48.826;15.176;2022-08-19T08:13:34;24.70;72.20
37794;DHT22;23632;48.826;15.176;2022-08-19T08:16:02;24.90;72.20
37794;DHT22;23632;48.826;15.176;2022-08-19T08:18:30;24.90;72.10
37794;DHT22;23632;48.826;15.176;2022-08-19T08:20:58;25.10;72.30
37794;DHT22;23632;48.826;15.176;2022-08-19T08:23:25;25.20;72.20
37794;DHT22;23632;48.826;15.176;2022-08-19T08:25:55;25.30;71.80
37794;DHT22;23632;48.826;15.176;2022-08-19T08:28:25;25.50;71.80
37794;DHT22;23632;48.826;15.176;2022-08-19T08:30:56;25.60;71.60
37794;DHT22;23632;48.826;15.176;2022-08-19T08:33:25;25.70;71.60
37794;DHT22;23632;48.826;15.176;2022-08-19T08:36:10;25.90;71.40
37794;DHT22;23632;48.826;15.176;2022-08-19T08:38:38;26.10;71.20
37794;DHT22;23632;48.826;15.176;2022-08-19T08:41:37;26.20;70.90
37794;DHT22;23632;48.826;15.176;2022-08-19T08:44:18;26.40;70.70
37794;DHT22;23632;48.826;15.176;2022-08-19T08:47:01;26.60;70.30
37794;DHT22;23632;48.826;15.176;2022-08-19T08:50:00;26.70;70.70
37794;DHT22;23632;48.826;15.176;2022-08-19T08:52:37;26.90;70.20
37794;DHT22;23632;48.826;15.176;2022-08-19T08:55:16;27.20;69.60
37794;DHT22;23632;48.826;15.176;2022-08-19T09:02:50;27.70;69.00
37794;DHT22;23632;48.826;15.176;2022-08-19T09:05:20;27.80;69.00
37794;DHT22;23632;48.826;15.176;2022-08-19T09:08:08;28.00;68.60
37794;DHT22;23632;48.826;15.176;2022-08-19T09:10:57;28.30;68.30
37794;DHT22;23632;48.826;15.176;2022-08-19T09:16:57;28.50;67.60
37794;DHT22;23632;48.826;15.176;2022-08-19T09:19:26;28.60;67.20
37794;DHT22;23632;48.826;15.176;2022-08-19T09:21:55;28.70;66.90
37794;DHT22;23632;48.826;15.176;2022-08-19T09:24:22;28.70;66.30
37794;DHT22;23632;48.826;15.176;2022-08-19T09:26:56;28.70;66.20
37794;DHT22;23632;48.826;15.176;2022-08-19T09:29:24;28.70;66.10
37794;DHT22;23632;48.826;15.176;2022-08-19T09:31:52;28.70;66.10
37794;DHT22;23632;48.826;15.176;2022-08-19T09:34:20;28.80;66.10
37794;DHT22;23632;48.826;15.176;2022-08-19T09:36:49;28.80;65.90
37794;DHT22;23632;48.826;15.176;2022-08-19T09:39:22;29.00;65.70
37794;DHT22;23632;48.826;15.176;2022-08-19T09:41:49;29.10;65.50
37794;DHT22;23632;48.826;15.176;2022-08-19T09:44:17;29.10;65.20
37794;DHT22;23632;48.826;15.176;2022-08-19T09:46:47;29.20;64.80
37794;DHT22;23632;48.826;15.176;2022-08-19T09:49:19;29.30;64.70
37794;DHT22;23632;48.826;15.176;2022-08-19T09:51:51;29.30;63.80
37794;DHT22;23632;48.826;15.176;2022-08-19T09:54:20;29.40;64.10
37794;DHT22;23632;48.826;15.176;2022-08-19T09:56:51;29.40;64.10
37794;DHT22;23632;48.826;15.176;2022-08-19T09:59:19;29.50;62.80
37794;DHT22;23632;48.826;15.176;2022-08-19T10:01:47;29.50;63.10
37794;DHT22;23632;48.826;15.176;2022-08-19T10:04:15;29.60;63.10
37794;DHT22;23632;48.826;15.176;2022-08-19T10:06:48;29.70;62.80
37794;DHT22;23632;48.826;15.176;2022-08-19T10:09:19;29.70;62.90
37794;DHT22;23632;48.826;15.176;2022-08-19T10:12:01;29.80;63.10
37794;DHT22;23632;48.826;15.176;2022-08-19T10:14:32;29.90;62.80
37794;DHT22;23632;48.826;15.176;2022-08-19T10:17:01;30.10;62.70
37794;DHT22;23632;48.826;15.176;2022-08-19T10:19:44;30.30;62.50
37794;DHT22;23632;48.826;15.176;2022-08-19T10:22:22;30.40;62.00
37794;DHT22;23632;48.826;15.176;2022-08-19T10:24:52;30.50;61.70
37794;DHT22;23632;48.826;15.176;2022-08-19T10:27:19;30.50;61.30
37794;DHT22;23632;48.826;15.176;2022-08-19T10:29:47;30.60;61.10
37794;DHT22;23632;48.826;15.176;2022-08-19T10:32:15;30.70;61.10
37794;DHT22;23632;48.826;15.176;2022-08-19T10:34:42;30.70;61.10
37794;DHT22;23632;48.826;15.176;2022-08-19T10:37:16;30.80;60.90
37794;DHT22;23632;48.826;15.176;2022-08-19T10:39:55;30.80;60.50
37794;DHT22;23632;48.826;15.176;2022-08-19T10:42:22;30.90;60.60
37794;DHT22;23632;48.826;15.176;2022-08-19T10:44:49;30.90;60.30
37794;DHT22;23632;48.826;15.176;2022-08-19T10:47:18;31.00;60.20
37794;DHT22;23632;48.826;15.176;2022-08-19T10:49:55;31.10;59.80
37794;DHT22;23632;48.826;15.176;2022-08-19T10:52:44;31.20;59.80
37794;DHT22;23632;48.826;15.176;2022-08-19T10:55:20;31.30;59.60
37794;DHT22;23632;48.826;15.176;2022-08-19T10:58:16;31.40;58.90
37794;DHT22;23632;48.826;15.176;2022-08-19T11:00:57;31.50;57.80
37794;DHT22;23632;48.826;15.176;2022-08-19T11:03:26;31.50;57.90
37794;DHT22;23632;48.826;15.176;2022-08-19T11:06:04;31.50;58.00
37794;DHT22;23632;48.826;15.176;2022-08-19T11:08:34;31.60;57.30
37794;DHT22;23632;48.826;15.176;2022-08-19T11:11:05;31.50;58.40
37794;DHT22;23632;48.826;15.176;2022-08-19T11:13:36;31.60;58.10
37794;DHT22;23632;48.826;15.176;2022-08-19T11:16:08;31.70;58.20
37794;DHT22;23632;48.826;15.176;2022-08-19T11:18:40;31.80;57.70
37794;DHT22;23632;48.826;15.176;2022-08-19T11:21:17;32.00;57.60
37794;DHT22;23632;48.826;15.176;2022-08-19T11:23:48;32.10;57.30
37794;DHT22;23632;48.826;15.176;2022-08-19T11:26:17;32.20;57.20
37794;DHT22;23632;48.826;15.176;2022-08-19T11:28:45;32.30;57.00
37794;DHT22;23632;48.826;15.176;2022-08-19T11:31:14;32.30;56.80
37794;DHT22;23632;48.826;15.176;2022-08-19T11:33:43;32.50;56.80
37794;DHT22;23632;48.826;15.176;2022-08-19T11:36:13;32.50;56.50
37794;DHT22;23632;48.826;15.176;2022-08-19T11:38:42;32.60;56.50
37794;DHT22;23632;48.826;15.176;2022-08-19T11:41:10;32.70;56.40
37794;DHT22;23632;48.826;15.176;2022-08-19T11:43:38;32.80;56.30
37794;DHT22;23632;48.826;15.176;2022-08-19T11:46:09;32.90;55.90
37794;DHT22;23632;48.826;15.176;2022-08-19T11:48:38;33.00;55.20
37794;DHT22;23632;48.826;15.176;2022-08-19T11:51:12;33.10;55.30
37794;DHT22;23632;48.826;15.176;2022-08-19T11:53:41;33.20;55.00
37794;DHT22;23632;48.826;15.176;2022-08-19T11:56:09;33.30;54.70
37794;DHT22;23632;48.826;15.176;2022-08-19T11:58:36;33.40;54.80
37794;DHT22;23632;48.826;15.176;2022-08-19T12:01:08;33.50;54.20
37794;DHT22;23632;48.826;15.176;2022-08-19T12:03:37;33.60;53.20
37794;DHT22;23632;48.826;15.176;2022-08-19T12:06:10;33.80;53.70
37794;DHT22;23632;48.826;15.176;2022-08-19T12:08:40;33.90;53.60
37794;DHT22;23632;48.826;15.176;2022-08-19T12:11:09;34.10;53.50
37794;DHT22;23632;48.826;15.176;2022-08-19T12:13:38;34.10;53.20
37794;DHT22;23632;48.826;15.176;2022-08-19T12:16:28;34.30;53.00
37794;DHT22;23632;48.826;15.176;2022-08-19T12:18:58;34.50;52.70
37794;DHT22;23632;48.826;15.176;2022-08-19T12:21:31;34.60;52.00
37794;DHT22;23632;48.826;15.176;2022-08-19T12:24:02;34.80;51.20
37794;DHT22;23632;48.826;15.176;2022-08-19T12:26:32;34.80;50.90
37794;DHT22;23632;48.826;15.176;2022-08-19T12:29:18;34.80;50.90
37794;DHT22;23632;48.826;15.176;2022-08-19T12:31:50;34.70;50.90
37794;DHT22;23632;48.826;15.176;2022-08-19T12:34:17;34.70;50.80
37794;DHT22;23632;48.826;15.176;2022-08-19T12:36:46;34.70;50.80
37794;DHT22;23632;48.826;15.176;2022-08-19T12:39:16;34.70;50.80
37794;DHT22;23632;48.826;15.176;2022-08-19T12:41:43;34.80;50.90
37794;DHT22;23632;48.826;15.176;2022-08-19T12:44:20;34.70;50.80
37794;DHT22;23632;48.826;15.176;2022-08-19T12:46:56;34.80;50.90
37794;DHT22;23632;48.826;15.176;2022-08-19T12:49:23;34.70;50.50
37794;DHT22;23632;48.826;15.176;2022-08-19T12:52:11;34.70;50.80
37794;DHT22;23632;48.826;15.176;2022-08-19T12:54:43;34.70;50.80
37794;DHT22;23632;48.826;15.176;2022-08-19T12:57:11;34.70;50.40
37794;DHT22;23632;48.826;15.176;2022-08-19T12:59:38;34.70;49.90
37794;DHT22;23632;48.826;15.176;2022-08-19T13:02:07;34.60;50.00
37794;DHT22;23632;48.826;15.176;2022-08-19T13:04:35;34.60;49.50
37794;DHT22;23632;48.826;15.176;2022-08-19T13:07:04;34.50;49.50
37794;DHT22;23632;48.826;15.176;2022-08-19T13:09:31;34.60;50.50
37794;DHT22;23632;48.826;15.176;2022-08-19T13:11:58;34.90;50.20
37794;DHT22;23632;48.826;15.176;2022-08-19T13:14:29;35.20;50.00
37794;DHT22;23632;48.826;15.176;2022-08-19T13:16:59;35.50;49.50
37794;DHT22;23632;48.826;15.176;2022-08-19T13:19:26;35.90;49.70
37794;DHT22;23632;48.826;15.176;2022-08-19T13:21:55;36.50;49.40
37794;DHT22;23632;48.826;15.176;2022-08-19T13:24:26;37.30;48.80
37794;DHT22;23632;48.826;15.176;2022-08-19T13:27:00;38.10;47.50
37794;DHT22;23632;48.826;15.176;2022-08-19T13:29:28;38.80;46.40
37794;DHT22;23632;48.826;15.176;2022-08-19T13:32:14;39.50;45.50
37794;DHT22;23632;48.826;15.176;2022-08-19T13:35:02;40.20;44.10
37794;DHT22;23632;48.826;15.176;2022-08-19T13:37:30;40.70;42.80
37794;DHT22;23632;48.826;15.176;2022-08-19T13:40:18;41.00;42.00
37794;DHT22;23632;48.826;15.176;2022-08-19T13:42:49;41.00;40.80
37794;DHT22;23632;48.826;15.176;2022-08-19T13:45:21;40.90;40.90
37794;DHT22;23632;48.826;15.176;2022-08-19T13:47:54;40.80;40.70
37794;DHT22;23632;48.826;15.176;2022-08-19T13:50:28;40.80;40.70
37794;DHT22;23632;48.826;15.176;2022-08-19T13:52:58;40.60;40.10
37794;DHT22;23632;48.826;15.176;2022-08-19T13:55:26;40.40;40.00
37794;DHT22;23632;48.826;15.176;2022-08-19T13:57:56;40.20;40.00
37794;DHT22;23632;48.826;15.176;2022-08-19T14:00:28;39.90;39.90
37794;DHT22;23632;48.826;15.176;2022-08-19T14:02:57;39.70;39.70
37794;DHT22;23632;48.826;15.176;2022-08-19T14:05:26;39.40;39.90
37794;DHT22;23632;48.826;15.176;2022-08-19T14:07:55;39.00;40.00
37794;DHT22;23632;48.826;15.176;2022-08-19T14:10:23;38.60;40.10
37794;DHT22;23632;48.826;15.176;2022-08-19T14:12:56;38.10;40.50
37794;DHT22;23632;48.826;15.176;2022-08-19T14:15:25;37.60;41.30
37794;DHT22;23632;48.826;15.176;2022-08-19T14:17:54;37.10;42.00
37794;DHT22;23632;48.826;15.176;2022-08-19T14:20:22;36.60;42.90
37794;DHT22;23632;48.826;15.176;2022-08-19T14:22:52;36.10;43.30
37794;DHT22;23632;48.826;15.176;2022-08-19T14:25:24;35.70;43.70
37794;DHT22;23632;48.826;15.176;2022-08-19T14:27:52;35.30;44.30
37794;DHT22;23632;48.826;15.176;2022-08-19T14:30:24;34.90;44.80
37794;DHT22;23632;48.826;15.176;2022-08-19T14:32:55;34.60;45.40
37794;DHT22;23632;48.826;15.176;2022-08-19T14:35:22;34.30;45.80
37794;DHT22;23632;48.826;15.176;2022-08-19T14:37:50;34.10;46.00
37794;DHT22;23632;48.826;15.176;2022-08-19T14:40:24;33.80;46.50
37794;DHT22;23632;48.826;15.176;2022-08-19T14:42:58;33.60;46.90
37794;DHT22;23632;48.826;15.176;2022-08-19T14:45:34;33.50;47.40
37794;DHT22;23632;48.826;15.176;2022-08-19T14:48:07;33.50;47.80
37794;DHT22;23632;48.826;15.176;2022-08-19T14:50:45;33.50;48.40
37794;DHT22;23632;48.826;15.176;2022-08-19T14:53:13;33.90;49.00
37794;DHT22;23632;48.826;15.176;2022-08-19T14:55:43;34.40;48.30
37794;DHT22;23632;48.826;15.176;2022-08-19T14:58:12;34.80;47.80
37794;DHT22;23632;48.826;15.176;2022-08-19T15:00:57;35.40;47.60
37794;DHT22;23632;48.826;15.176;2022-08-19T15:03:27;35.90;46.90
37794;DHT22;23632;48.826;15.176;2022-08-19T15:05:55;36.60;46.30
37794;DHT22;23632;48.826;15.176;2022-08-19T15:08:25;37.20;45.50
37794;DHT22;23632;48.826;15.176;2022-08-19T15:10:54;37.80;44.90
37794;DHT22;23632;48.826;15.176;2022-08-19T15:13:22;38.30;43.90
37794;DHT22;23632;48.826;15.176;2022-08-19T15:15:51;38.90;43.00
37794;DHT22;23632;48.826;15.176;2022-08-19T15:18:19;39.50;42.40
37794;DHT22;23632;48.826;15.176;2022-08-19T15:20:47;40.10;41.70
37794;DHT22;23632;48.826;15.176;2022-08-19T15:23:17;40.50;40.50
37794;DHT22;23632;48.826;15.176;2022-08-19T15:25:46;40.90;39.30
37794;DHT22;23632;48.826;15.176;2022-08-19T15:28:15;41.30;39.10
37794;DHT22;23632;48.826;15.176;2022-08-19T15:30:43;41.40;38.60
37794;DHT22;23632;48.826;15.176;2022-08-19T15:33:10;41.60;38.60
37794;DHT22;23632;48.826;15.176;2022-08-19T15:35:43;41.90;39.50
37794;DHT22;23632;48.826;15.176;2022-08-19T15:38:10;42.20;37.90
37794;DHT22;23632;48.826;15.176;2022-08-19T15:40:40;42.50;37.70
37794;DHT22;23632;48.826;15.176;2022-08-19T15:43:08;42.80;36.80
37794;DHT22;23632;48.826;15.176;2022-08-19T15:45:35;43.10;36.50
37794;DHT22;23632;48.826;15.176;2022-08-19T15:48:03;43.30;36.20
37794;DHT22;23632;48.826;15.176;2022-08-19T15:50:31;43.50;35.90